Flight Track Log - Related Links

Times and Time Zones

All times are in EDT time to prevent confusion due to time zone crossing. See the CPT7773 flight status page for this flight to view local times or setup timezone preferences in your user account.

Time Position Orientation Groundspeed Altitude Reporting Facility
EDT Latitude Longitude Course Direction KTS MPH feet Rate Location/Type
Mon 08:10:15 PM 44.5311 -109.0081 120° Southeast 87 100 6,100  Level Salt Lake Center
Mon 08:11:16 PM 44.5514 -108.9872 36° Northeast 90 104 7,200 1,073 Climbing Salt Lake Center
Mon 08:12:18 PM 44.5625 -108.9544 65° Northeast 93 107 8,300 968 Climbing Salt Lake Center
Mon 08:13:00 PM 44.3389 -108.7243 133° Southeast  Level Estimated
Mon 08:13:20 PM 44.5508 -108.9094 110° East 108 124 9,200  Level Salt Lake Center
Mon 08:14:00 PM 44.3152 -108.6680 120° Southeast  Level FlightAware Approximate
Mon 08:14:21 PM 44.5261 -108.8747 135° Southeast 117 135 10,100  Level Salt Lake Center
Mon 08:15:00 PM 44.2915 -108.6117 120° Southeast  Level FlightAware Approximate
Mon 08:15:23 PM 44.4975 -108.8361 136° Southeast 128 147 10,600  Level Salt Lake Center
Mon 08:16:25 PM 44.4639 -108.7794 130° Southeast 144 166 11,400 683 Climbing Salt Lake Center
Mon 08:17:26 PM 44.4364 -108.7339 130° Southeast 151 174 12,000 341 Climbing Salt Lake Center
Mon 08:18:28 PM 44.4078 -108.6900 132° Southeast 152 175 12,100 48 Climbing Salt Lake Center
Mon 08:19:30 PM 44.3739 -108.6419 135° Southeast 160 184 12,100 -49 Level Salt Lake Center
Mon 08:20:31 PM 44.3403 -108.5925 134° Southeast 168 193 12,000 -49 Descending Salt Lake Center
Mon 08:21:33 PM 44.3089 -108.5433 132° Southeast 170 196 12,000  Level Salt Lake Center
Mon 08:23:00 PM 44.2644 -108.4760 133° Southeast  Level FlightAware Approximate
Mon 08:23:36 PM 44.2408 -108.4403 133° Southeast 166 191 12,000  Level Salt Lake Center
Mon 08:24:38 PM 44.2103 -108.3947 133° Southeast 165 190 12,100 48 Climbing Salt Lake Center
Mon 08:25:40 PM 44.1789 -108.3483 133° Southeast 164 189 12,100 -32 Level Salt Lake Center
Mon 08:27:00 PM 44.1399 -108.2897 133° Southeast  Level FlightAware Approximate
Mon 08:27:48 PM 44.1081 -108.2358 133° Southeast 172 198 12,000  Level Denver Center
Mon 08:28:45 PM 44.0825 -108.1981 133° Southeast 172 198 12,000 51 Level Salt Lake Center
Mon 08:29:46 PM 44.0519 -108.1506 132° Southeast 170 196 12,100  Climbing Salt Lake Center
Mon 08:30:48 PM 44.0139 -108.0925 132° Southeast 169 194 12,000 -48 Descending Salt Lake Center
Mon 08:31:50 PM 43.9833 -108.0439 131° Southeast 169 194 12,000 -49 Level Salt Lake Center
Mon 08:32:51 PM 43.9514 -107.9972 134° Southeast 168 193 11,900  Descending Salt Lake Center
Mon 08:33:53 PM 43.9211 -107.9497 131° Southeast 167 192 12,000 48 Climbing Salt Lake Center
Mon 08:34:55 PM 43.8906 -107.9031 132° Southeast 166 191 12,000  Level Salt Lake Center
Mon 08:35:56 PM 43.8594 -107.8561 133° Southeast 165 190 12,000  Level Salt Lake Center
Mon 08:36:58 PM 43.8275 -107.8100 134° Southeast 166 191 12,000  Level Salt Lake Center
Mon 08:38:00 PM 43.7894 -107.7542 133° Southeast 166 191 12,000  Level Salt Lake Center
Mon 08:39:01 PM 43.7575 -107.7078 134° Southeast 166 191 12,000  Level Salt Lake Center
Mon 08:40:03 PM 43.7264 -107.6614 133° Southeast 166 191 12,000  Level Salt Lake Center
Mon 08:41:05 PM 43.6967 -107.6161 132° Southeast 163 188 12,000  Level Salt Lake Center
Mon 08:42:06 PM 43.6664 -107.5719 133° Southeast 161 185 12,000  Level Salt Lake Center
Mon 08:43:08 PM 43.6356 -107.5283 134° Southeast 160 184 12,000  Level Salt Lake Center
Mon 08:44:10 PM 43.6058 -107.4836 133° Southeast 159 183 12,000  Level Salt Lake Center
Mon 08:45:11 PM 43.5694 -107.4303 133° Southeast 159 183 12,000  Level Salt Lake Center
Mon 08:46:13 PM 43.5389 -107.3839 132° Southeast 161 185 12,000  Level Salt Lake Center
Mon 08:47:14 PM 43.5081 -107.3383 133° Southeast 162 186 12,000  Level Salt Lake Center
Mon 08:48:16 PM 43.4767 -107.2939 134° Southeast 162 186 12,000  Level Salt Lake Center
Mon 08:49:18 PM 43.4450 -107.2489 134° Southeast 163 188 12,000  Level Salt Lake Center
Mon 08:50:19 PM 43.4144 -107.2050 134° Southeast 161 185 12,000  Level Salt Lake Center
Mon 08:51:21 PM 43.3836 -107.1594 133° Southeast 162 186 12,000  Level Salt Lake Center
Mon 08:52:23 PM 43.3472 -107.1053 133° Southeast 162 186 12,000  Level Salt Lake Center
Mon 08:53:24 PM 43.3153 -107.0592 134° Southeast 165 190 12,000  Level Salt Lake Center
Mon 08:54:26 PM 43.2825 -107.0122 134° Southeast 169 194 12,000  Level Salt Lake Center
Mon 08:55:27 PM 43.2500 -106.9653 134° Southeast 170 196 12,000 -195 Level Salt Lake Center
Mon 08:56:29 PM 43.2161 -106.9164 134° Southeast 171 197 11,600 -537 Descending Salt Lake Center
Mon 08:57:30 PM 43.1781 -106.8608 133° Southeast 178 205 10,900 -732 Descending Salt Lake Center
Mon 08:58:32 PM 43.1444 -106.8142 135° Southeast 179 206 10,100 -810 Descending Salt Lake Center
Mon 08:59:36 PM 43.1086 -106.7544 129° Southeast 181 208 9,200 -720 Descending Denver Center
Mon 09:00:37 PM 43.0753 -106.7061 133° Southeast 182 209 8,600 -537 Descending Denver Center
Mon 09:01:39 PM 43.0417 -106.6583 134° Southeast 181 208 8,100 -293 Descending Denver Center
Mon 09:02:40 PM 43.0044 -106.6067 135° Southeast 176 203 8,000 -244 Descending Denver Center
Mon 09:03:42 PM 42.9769 -106.5644 132° Southeast 166 191 7,600 -390 Descending Denver Center
Mon 09:04:43 PM 42.9294 -106.5419 161° South 177 204 7,200 -246 Descending Denver Center
Mon 09:05:44 PM 42.8878 -106.5378 176° South 174 200 7,100 -98 Descending Denver Center

Login

Don't have an account? Register now (free) for customized features, flight alerts, and more!